createdAt,value
2018-07-06T00:09:02.656Z,21.70
2018-07-06T00:11:46.353Z,21.60
2018-07-06T00:14:28.371Z,21.50
2018-07-06T00:17:10.714Z,21.40
2018-07-06T00:19:52.053Z,21.30
2018-07-06T00:25:28.884Z,21.20
2018-07-06T00:28:12.363Z,21.10
2018-07-06T00:30:58.155Z,21.00
2018-07-06T00:33:41.103Z,21.00
2018-07-06T00:36:24.937Z,20.90
2018-07-06T00:39:07.917Z,20.80
2018-07-06T00:41:49.539Z,20.80
2018-07-06T00:44:33.152Z,20.80
2018-07-06T00:47:23.349Z,20.70
2018-07-06T00:52:49.951Z,20.70
2018-07-06T00:55:31.381Z,20.70
2018-07-06T00:58:13.589Z,20.70
2018-07-06T01:00:55.027Z,20.60
2018-07-06T01:03:36.405Z,20.60
2018-07-06T01:06:18.155Z,20.50
2018-07-06T01:09:01.319Z,20.40
2018-07-06T01:11:43.242Z,20.30
2018-07-06T01:14:24.528Z,20.30
2018-07-06T01:17:11.929Z,20.20
2018-07-06T01:19:53.549Z,20.30
2018-07-06T01:25:36.446Z,20.30
2018-07-06T01:28:34.194Z,20.20
2018-07-06T01:31:23.644Z,20.20
2018-07-06T01:34:05.020Z,20.10
2018-07-06T01:36:46.340Z,20.10
2018-07-06T01:39:27.978Z,20.00
2018-07-06T01:42:25.485Z,20.00
2018-07-06T01:45:07.018Z,20.00
2018-07-06T01:47:51.399Z,20.00
2018-07-06T01:50:38.584Z,20.00
2018-07-06T01:53:20.620Z,19.90
2018-07-06T01:56:07.472Z,19.90
2018-07-06T01:58:49.695Z,19.90
2018-07-06T02:01:32.239Z,19.90
2018-07-06T02:04:14.535Z,19.90
2018-07-06T02:06:55.756Z,19.90
2018-07-06T02:09:37.247Z,19.90
2018-07-06T02:12:19.027Z,19.90
2018-07-06T02:15:00.831Z,20.00
2018-07-06T02:17:42.231Z,20.00
2018-07-06T02:20:23.591Z,20.00
2018-07-06T02:23:04.825Z,20.00
2018-07-06T02:25:46.266Z,20.10
2018-07-06T02:28:28.465Z,20.10
2018-07-06T02:31:11.340Z,20.10
2018-07-06T02:33:52.598Z,20.00
2018-07-06T02:36:34.088Z,20.00
2018-07-06T02:39:15.336Z,19.90
2018-07-06T02:42:00.877Z,19.90
2018-07-06T02:47:47.142Z,19.70
2018-07-06T02:50:29.469Z,19.70
2018-07-06T02:53:10.948Z,19.60
2018-07-06T02:55:53.802Z,19.50
2018-07-06T02:58:43.871Z,19.50
2018-07-06T03:01:25.156Z,19.50
2018-07-06T03:04:06.482Z,19.40
2018-07-06T03:06:58.105Z,19.40
2018-07-06T03:09:45.475Z,19.50
2018-07-06T03:15:50.869Z,19.50
2018-07-06T03:18:42.209Z,19.50
2018-07-06T03:21:23.732Z,19.40
2018-07-06T03:24:05.878Z,19.40
2018-07-06T03:26:47.254Z,19.30
2018-07-06T03:29:28.741Z,19.20
2018-07-06T03:32:10.098Z,19.10
2018-07-06T03:34:51.613Z,19.00
2018-07-06T03:37:33.131Z,19.00
2018-07-06T03:40:14.639Z,19.00
2018-07-06T03:42:55.988Z,19.10
2018-07-06T03:45:37.424Z,19.10
2018-07-06T03:48:19.193Z,19.20
2018-07-06T03:51:01.562Z,19.10
2018-07-06T03:53:43.127Z,19.20
2018-07-06T03:56:29.274Z,19.10
2018-07-06T03:59:10.871Z,19.10
2018-07-06T04:01:52.376Z,19.10
2018-07-06T04:04:33.665Z,19.10
2018-07-06T04:07:15.950Z,19.00
2018-07-06T04:09:57.415Z,19.00
2018-07-06T04:12:38.790Z,18.90
2018-07-06T04:15:20.199Z,19.00
2018-07-06T04:18:01.557Z,18.90
2018-07-06T04:20:42.919Z,18.90
2018-07-06T04:23:24.332Z,18.90
2018-07-06T04:26:05.829Z,18.90
2018-07-06T04:28:48.049Z,18.80
2018-07-06T04:31:29.345Z,18.70
2018-07-06T04:34:10.627Z,18.70
2018-07-06T04:36:52.046Z,18.60
2018-07-06T04:39:33.305Z,18.60
2018-07-06T04:42:14.642Z,18.50
2018-07-06T04:44:56.086Z,18.50
2018-07-06T04:47:37.601Z,18.50
2018-07-06T04:50:19.313Z,18.50
2018-07-06T04:53:00.837Z,18.50
2018-07-06T04:55:42.935Z,18.50
2018-07-06T04:58:24.971Z,18.40
2018-07-06T05:01:06.463Z,18.40
2018-07-06T05:03:47.822Z,18.50
2018-07-06T05:06:31.069Z,18.40
2018-07-06T05:09:12.425Z,18.40
2018-07-06T05:11:53.891Z,18.40
2018-07-06T05:14:35.490Z,18.40
2018-07-06T05:17:16.843Z,18.40
2018-07-06T05:19:58.532Z,18.40
2018-07-06T05:22:39.748Z,18.40
2018-07-06T05:25:21.258Z,18.40
2018-07-06T05:28:04.058Z,18.40
2018-07-06T05:30:46.320Z,18.40
2018-07-06T05:33:27.703Z,18.40
2018-07-06T05:36:09.194Z,18.40
2018-07-06T05:38:50.393Z,18.40
2018-07-06T05:41:31.899Z,18.40
2018-07-06T05:44:13.233Z,18.40
2018-07-06T05:46:54.549Z,18.40
2018-07-06T05:49:37.664Z,18.40
2018-07-06T05:52:20.668Z,18.50
2018-07-06T05:55:02.017Z,18.50
2018-07-06T05:57:43.407Z,18.50
2018-07-06T06:00:24.792Z,18.50
2018-07-06T06:03:07.191Z,18.50
2018-07-06T06:05:48.453Z,18.50
2018-07-06T06:08:17.797Z,18.50
2018-07-06T06:10:51.480Z,18.50
2018-07-06T06:13:23.505Z,18.40
2018-07-06T06:15:55.501Z,18.40
2018-07-06T06:18:27.939Z,18.30
2018-07-06T06:20:59.987Z,18.30
2018-07-06T06:23:32.039Z,18.20
2018-07-06T06:26:04.828Z,18.20
2018-07-06T06:28:36.908Z,18.10
2018-07-06T06:31:09.909Z,18.10
2018-07-06T06:33:42.579Z,18.00
2018-07-06T06:36:14.784Z,18.00
2018-07-06T06:38:46.922Z,18.00
2018-07-06T06:41:19.274Z,18.00
2018-07-06T06:43:52.159Z,18.10
2018-07-06T06:46:24.394Z,18.20
2018-07-06T06:48:56.554Z,18.20
2018-07-06T06:51:39.084Z,18.30
2018-07-06T06:54:11.330Z,18.30
2018-07-06T06:56:43.818Z,18.40
2018-07-06T06:59:16.583Z,18.40
2018-07-06T07:01:48.496Z,18.40
2018-07-06T07:04:21.814Z,18.40
2018-07-06T07:06:54.281Z,18.40
2018-07-06T07:09:26.885Z,18.40
2018-07-06T07:11:59.443Z,18.40
2018-07-06T07:14:31.641Z,18.40
2018-07-06T07:17:03.739Z,18.40
2018-07-06T07:19:35.878Z,18.40
2018-07-06T07:22:07.845Z,18.40
2018-07-06T07:24:40.503Z,18.40
2018-07-06T07:27:13.086Z,18.40
2018-07-06T07:29:46.211Z,18.40
2018-07-06T07:32:18.464Z,18.30
2018-07-06T07:34:50.450Z,18.40
2018-07-06T07:37:22.774Z,18.30
2018-07-06T07:39:54.848Z,18.30
2018-07-06T07:42:27.212Z,18.20
2018-07-06T07:44:59.510Z,18.30
2018-07-06T07:47:31.565Z,18.30
2018-07-06T07:50:03.524Z,18.30
2018-07-06T07:52:46.755Z,18.30
2018-07-06T07:55:19.564Z,18.30
2018-07-06T07:57:52.169Z,18.10
2018-07-06T08:00:24.153Z,18.00
2018-07-06T08:02:56.376Z,17.80
2018-07-06T08:05:28.496Z,17.70
2018-07-06T08:08:00.711Z,17.70
2018-07-06T08:10:32.830Z,17.70
2018-07-06T08:13:04.977Z,17.70
2018-07-06T08:15:37.050Z,17.80
2018-07-06T08:18:09.015Z,17.80
2018-07-06T08:20:41.094Z,17.80
2018-07-06T08:23:13.042Z,17.90
2018-07-06T08:25:46.178Z,17.90
2018-07-06T08:28:18.096Z,17.90
2018-07-06T08:30:50.082Z,17.90
2018-07-06T08:33:24.612Z,17.80
2018-07-06T08:36:06.136Z,17.80
2018-07-06T08:38:38.038Z,17.80
2018-07-06T08:41:10.106Z,17.70
2018-07-06T08:43:42.037Z,17.70
2018-07-06T08:46:14.017Z,17.70
2018-07-06T08:48:46.086Z,17.80
2018-07-06T08:51:18.121Z,17.80
2018-07-06T08:53:50.187Z,17.80
2018-07-06T08:56:22.716Z,17.90
2018-07-06T08:58:54.674Z,17.90
2018-07-06T09:01:26.670Z,17.90
2018-07-06T09:03:58.608Z,18.00
2018-07-06T09:06:31.592Z,18.00
2018-07-06T09:09:03.630Z,18.10
2018-07-06T09:11:35.780Z,18.10
2018-07-06T09:14:08.082Z,18.10
2018-07-06T09:16:40.040Z,18.10
2018-07-06T09:19:12.028Z,18.10
2018-07-06T09:21:44.079Z,18.10
2018-07-06T09:24:16.050Z,18.10
2018-07-06T09:26:48.230Z,18.00
2018-07-06T09:29:20.249Z,17.90
2018-07-06T09:31:52.199Z,17.90
2018-07-06T09:34:25.343Z,17.90
2018-07-06T09:36:57.417Z,17.90
2018-07-06T09:39:29.503Z,17.90
2018-07-06T09:42:01.707Z,17.90
2018-07-06T09:44:33.733Z,17.80
2018-07-06T09:47:07.348Z,17.80
2018-07-06T09:49:39.297Z,17.80
2018-07-06T09:52:11.459Z,17.80
2018-07-06T09:54:47.101Z,17.80
2018-07-06T09:57:19.397Z,17.90
2018-07-06T09:59:52.326Z,17.90
2018-07-06T10:02:24.339Z,17.90
2018-07-06T10:04:56.273Z,17.90
2018-07-06T10:07:28.329Z,17.90
2018-07-06T10:10:00.336Z,17.90
2018-07-06T10:12:32.468Z,17.90
2018-07-06T10:15:05.765Z,17.90
2018-07-06T10:17:37.813Z,18.00
2018-07-06T10:20:10.073Z,18.00
2018-07-06T10:22:42.032Z,18.00
2018-07-06T10:25:13.979Z,18.00
2018-07-06T10:27:55.729Z,18.10
2018-07-06T10:30:36.196Z,18.10
2018-07-06T10:33:09.190Z,18.10
2018-07-06T10:36:14.222Z,18.10
2018-07-06T10:38:46.401Z,18.10
2018-07-06T10:41:18.404Z,18.10
2018-07-06T10:43:50.490Z,18.20
2018-07-06T10:46:22.391Z,18.20
2018-07-06T10:48:54.383Z,18.20
2018-07-06T10:51:26.871Z,18.20
2018-07-06T10:53:58.899Z,18.10
2018-07-06T10:56:31.848Z,18.20
2018-07-06T10:59:04.048Z,18.20
2018-07-06T11:01:35.939Z,18.20
2018-07-06T11:04:08.190Z,18.20
2018-07-06T11:06:40.138Z,18.20
2018-07-06T11:09:12.194Z,18.20
2018-07-06T11:11:44.150Z,18.20
2018-07-06T11:14:16.228Z,18.20
2018-07-06T11:16:48.538Z,18.20
2018-07-06T11:19:20.498Z,18.20
2018-07-06T11:21:52.455Z,18.20
2018-07-06T11:24:25.038Z,18.20
2018-07-06T11:26:57.799Z,18.20
2018-07-06T11:29:29.958Z,18.20
2018-07-06T11:32:01.878Z,18.20
2018-07-06T11:34:34.269Z,18.20
2018-07-06T11:37:06.786Z,18.20
2018-07-06T11:39:39.660Z,18.10
2018-07-06T11:42:11.609Z,18.00
2018-07-06T11:44:43.877Z,17.90
2018-07-06T11:47:15.938Z,17.80
2018-07-06T11:49:47.983Z,17.80
2018-07-06T11:52:21.685Z,17.90
2018-07-06T11:54:55.193Z,17.90
2018-07-06T11:57:28.070Z,18.00
2018-07-06T12:00:00.201Z,18.00
2018-07-06T12:02:32.261Z,18.00
2018-07-06T12:05:04.299Z,18.00
2018-07-06T12:07:38.245Z,18.00
2018-07-06T12:10:10.431Z,18.00
2018-07-06T12:12:42.706Z,17.90
2018-07-06T12:15:14.808Z,17.80
2018-07-06T12:17:46.944Z,17.70
2018-07-06T12:20:19.022Z,17.70
2018-07-06T12:22:51.058Z,17.70
2018-07-06T12:25:23.090Z,17.60
2018-07-06T12:27:55.095Z,17.60
2018-07-06T12:30:28.500Z,17.60
2018-07-06T12:33:00.640Z,17.60
2018-07-06T12:35:32.680Z,17.60
2018-07-06T12:38:08.219Z,17.60
2018-07-06T12:40:43.163Z,17.60
2018-07-06T12:43:15.396Z,17.60
2018-07-06T12:45:48.655Z,17.70
2018-07-06T12:48:23.957Z,17.70
2018-07-06T12:50:57.280Z,17.80
2018-07-06T12:53:31.057Z,17.90
2018-07-06T12:56:05.098Z,18.00
2018-07-06T12:59:15.114Z,18.20
2018-07-06T13:01:47.790Z,18.30
2018-07-06T13:04:19.945Z,18.60
2018-07-06T13:06:54.726Z,18.70
2018-07-06T13:09:27.432Z,18.90
2018-07-06T13:11:59.672Z,19.00
2018-07-06T13:14:31.748Z,19.20
2018-07-06T13:17:05.734Z,19.30
2018-07-06T13:20:05.823Z,19.40
2018-07-06T13:22:37.991Z,19.60
2018-07-06T13:25:18.164Z,19.80
2018-07-06T13:30:43.629Z,20.20
2018-07-06T13:33:18.276Z,20.40
2018-07-06T13:35:54.124Z,20.60
2018-07-06T13:38:28.907Z,20.70
2018-07-06T13:41:26.362Z,20.80
2018-07-06T13:43:58.519Z,20.90
2018-07-06T13:46:30.592Z,21.10
2018-07-06T13:49:03.002Z,21.30
2018-07-06T13:51:36.113Z,21.50
2018-07-06T13:54:08.534Z,21.40
2018-07-06T13:56:40.511Z,21.50
2018-07-06T13:59:13.213Z,21.30
2018-07-06T14:01:48.209Z,21.40
2018-07-06T14:04:20.319Z,21.40
2018-07-06T14:06:52.418Z,21.40
2018-07-06T14:09:24.552Z,21.30
2018-07-06T14:11:56.881Z,21.30
2018-07-06T14:14:29.021Z,21.30
2018-07-06T14:17:01.723Z,21.40
2018-07-06T14:19:33.853Z,21.40
2018-07-06T14:22:08.996Z,21.50
2018-07-06T14:24:42.829Z,21.50
2018-07-06T14:27:16.936Z,21.30
2018-07-06T14:29:50.830Z,21.50
2018-07-06T14:32:32.798Z,21.40
2018-07-06T14:35:06.663Z,21.50
2018-07-06T14:37:41.710Z,21.60
2018-07-06T14:40:14.230Z,21.60
2018-07-06T14:42:46.457Z,21.80
2018-07-06T14:45:19.575Z,21.70
2018-07-06T14:47:52.542Z,21.70
2018-07-06T14:53:18.867Z,21.90
2018-07-06T14:55:52.898Z,22.20
2018-07-06T14:58:26.684Z,22.80
2018-07-06T15:00:59.919Z,23.30
2018-07-06T15:03:40.153Z,23.50
2018-07-06T15:06:12.566Z,23.50
2018-07-06T15:08:45.307Z,23.50
2018-07-06T15:11:19.721Z,23.20
2018-07-06T15:13:51.834Z,22.90
2018-07-06T15:16:23.961Z,22.70
2018-07-06T15:18:57.083Z,22.50
2018-07-06T15:21:30.445Z,22.30
2018-07-06T15:24:02.838Z,22.10
2018-07-06T15:26:38.130Z,21.90
2018-07-06T15:29:10.153Z,21.90
2018-07-06T15:31:43.731Z,21.80
2018-07-06T15:34:15.684Z,21.80
2018-07-06T15:36:47.860Z,21.80
2018-07-06T15:39:22.368Z,21.70
2018-07-06T15:42:00.446Z,21.50
2018-07-06T15:44:33.316Z,21.40
2018-07-06T15:47:05.671Z,21.40
2018-07-06T15:49:38.652Z,21.30
2018-07-06T15:52:12.368Z,21.40
2018-07-06T15:54:44.716Z,21.30
2018-07-06T15:57:19.784Z,21.30
2018-07-06T15:59:56.895Z,21.30
2018-07-06T16:02:30.024Z,21.40
2018-07-06T16:05:02.687Z,21.50
2018-07-06T16:07:34.760Z,21.60
2018-07-06T16:10:07.875Z,21.90
2018-07-06T16:12:45.070Z,22.40
2018-07-06T16:15:17.207Z,22.60
2018-07-06T16:17:49.261Z,22.70
2018-07-06T16:20:23.542Z,22.60
2018-07-06T16:22:57.070Z,22.50
2018-07-06T16:25:29.278Z,22.70
2018-07-06T16:28:01.263Z,22.90
2018-07-06T16:30:33.270Z,22.90
2018-07-06T16:33:06.370Z,22.90
2018-07-06T16:35:38.999Z,22.90
2018-07-06T16:38:11.989Z,23.30
2018-07-06T16:40:44.073Z,23.50
2018-07-06T16:43:16.301Z,23.50
2018-07-06T16:45:56.179Z,23.70
2018-07-06T16:48:28.190Z,24.10
2018-07-06T16:51:02.239Z,24.90
2018-07-06T16:53:34.756Z,25.20
2018-07-06T16:56:08.548Z,25.20
2018-07-06T16:58:40.619Z,24.90
2018-07-06T17:01:12.681Z,25.30
2018-07-06T17:03:44.862Z,25.50
2018-07-06T17:06:19.271Z,25.80
2018-07-06T17:08:51.358Z,26.30
2018-07-06T17:11:23.296Z,26.60
2018-07-06T17:13:55.593Z,26.90
2018-07-06T17:16:28.519Z,27.80
2018-07-06T17:19:00.612Z,27.50
2018-07-06T17:21:33.445Z,26.60
2018-07-06T17:24:05.605Z,26.60
2018-07-06T17:26:41.040Z,27.10
2018-07-06T17:29:13.767Z,26.90
2018-07-06T17:31:45.885Z,27.30
2018-07-06T17:34:17.912Z,27.70
2018-07-06T17:36:50.473Z,27.70
2018-07-06T17:39:22.662Z,28.00
2018-07-06T17:41:54.656Z,28.90
2018-07-06T17:44:28.598Z,28.90
2018-07-06T17:47:03.020Z,28.20
2018-07-06T17:49:36.257Z,27.20
2018-07-06T17:52:08.183Z,26.10
2018-07-06T17:54:40.629Z,25.30
2018-07-06T17:57:13.030Z,24.90
2018-07-06T17:59:45.706Z,24.60
2018-07-06T18:02:20.073Z,25.30
2018-07-06T18:04:52.257Z,25.50
2018-07-06T18:07:24.695Z,25.10
2018-07-06T18:09:57.551Z,25.20
2018-07-06T18:12:30.125Z,25.10
2018-07-06T18:15:07.382Z,24.70
2018-07-06T18:17:55.796Z,24.40
2018-07-06T18:20:28.810Z,24.10
2018-07-06T18:23:14.022Z,24.00
2018-07-06T18:25:47.494Z,24.00
2018-07-06T18:28:22.363Z,24.00
2018-07-06T18:30:54.846Z,24.10
2018-07-06T18:33:31.010Z,24.60
2018-07-06T18:36:07.648Z,24.80
2018-07-06T18:38:43.657Z,24.10
2018-07-06T18:41:16.630Z,22.60
2018-07-06T18:43:48.733Z,21.50
2018-07-06T18:46:21.951Z,20.90
2018-07-06T18:49:02.294Z,20.30
2018-07-06T18:51:35.296Z,20.10
2018-07-06T18:54:15.076Z,20.00
2018-07-06T18:56:47.226Z,20.10
2018-07-06T18:59:19.991Z,20.10
2018-07-06T19:01:53.114Z,20.20
2018-07-06T19:04:25.196Z,20.30
2018-07-06T19:06:58.174Z,20.40
2018-07-06T19:09:30.470Z,20.50
2018-07-06T19:12:04.453Z,20.70
2018-07-06T19:14:36.525Z,21.00
2018-07-06T19:17:08.763Z,21.20
2018-07-06T19:19:40.754Z,21.10
2018-07-06T19:22:12.817Z,21.20
2018-07-06T19:24:44.918Z,21.00
2018-07-06T19:27:18.487Z,21.00
2018-07-06T19:30:01.326Z,20.90
2018-07-06T19:32:33.467Z,21.00
2018-07-06T19:35:06.274Z,21.00
2018-07-06T19:37:39.619Z,21.20
2018-07-06T19:40:12.530Z,21.30
2018-07-06T19:42:46.488Z,21.40
2018-07-06T19:45:19.476Z,21.50
2018-07-06T19:47:52.479Z,21.70
2018-07-06T19:50:34.496Z,21.90
2018-07-06T19:53:09.192Z,22.00
2018-07-06T19:58:28.628Z,22.10
2018-07-06T20:01:01.024Z,22.00
2018-07-06T20:03:33.079Z,22.00
2018-07-06T20:06:05.938Z,21.90
2018-07-06T20:08:39.598Z,21.50
2018-07-06T20:11:12.755Z,21.10
2018-07-06T20:13:45.012Z,20.90
2018-07-06T20:16:17.034Z,20.60
2018-07-06T20:18:49.038Z,20.30
2018-07-06T20:21:23.307Z,20.20
2018-07-06T20:23:56.001Z,20.20
2018-07-06T20:26:28.088Z,20.20
2018-07-06T20:29:01.497Z,20.30
2018-07-06T20:31:34.996Z,20.40
2018-07-06T20:34:07.595Z,20.50
2018-07-06T20:36:39.734Z,20.70
2018-07-06T20:39:11.849Z,20.80
2018-07-06T20:41:45.243Z,20.90
2018-07-06T20:44:18.407Z,20.90
2018-07-06T20:46:50.805Z,21.00
2018-07-06T20:49:26.816Z,21.10
2018-07-06T20:51:58.928Z,21.10
2018-07-06T20:54:30.975Z,21.10
2018-07-06T20:57:02.886Z,21.30
2018-07-06T20:59:35.018Z,21.30
2018-07-06T21:02:07.126Z,21.50
2018-07-06T21:05:02.163Z,21.50
2018-07-06T21:07:35.900Z,21.60
2018-07-06T21:10:09.184Z,21.90
2018-07-06T21:12:43.032Z,21.70
2018-07-06T21:15:15.693Z,21.50
2018-07-06T21:17:47.761Z,21.30
2018-07-06T21:20:19.806Z,21.10
2018-07-06T21:22:52.327Z,20.70
2018-07-06T21:25:24.409Z,20.50
2018-07-06T21:27:56.483Z,20.20
2018-07-06T21:30:29.714Z,20.00
2018-07-06T21:33:03.231Z,20.10
2018-07-06T21:35:38.118Z,20.00
2018-07-06T21:38:10.373Z,19.90
2018-07-06T21:40:43.423Z,19.90
2018-07-06T21:43:16.945Z,19.90
2018-07-06T21:45:52.264Z,19.90
2018-07-06T21:48:27.606Z,20.00
2018-07-06T21:50:59.973Z,20.10
2018-07-06T21:53:35.417Z,20.10
2018-07-06T21:56:08.100Z,20.20
2018-07-06T21:58:40.181Z,20.30
2018-07-06T22:01:13.072Z,20.40
2018-07-06T22:03:45.502Z,20.30
2018-07-06T22:06:17.531Z,20.40
2018-07-06T22:08:49.800Z,20.30
2018-07-06T22:11:22.028Z,20.30
2018-07-06T22:13:53.990Z,20.30
2018-07-06T22:16:27.067Z,20.30
2018-07-06T22:18:59.093Z,20.20
2018-07-06T22:21:31.897Z,20.20
2018-07-06T22:24:03.929Z,20.20
2018-07-06T22:26:37.484Z,20.20
2018-07-06T22:29:09.917Z,20.10
2018-07-06T22:31:42.072Z,20.10
2018-07-06T22:34:14.521Z,20.10
2018-07-06T22:36:46.630Z,20.10
2018-07-06T22:39:18.712Z,20.10
2018-07-06T22:41:51.634Z,20.10
2018-07-06T22:44:23.685Z,20.10
2018-07-06T22:46:55.794Z,20.00
2018-07-06T22:49:27.758Z,19.90
2018-07-06T22:51:59.886Z,19.90
2018-07-06T22:54:32.871Z,20.00
2018-07-06T22:57:05.009Z,20.10
2018-07-06T22:59:37.010Z,20.20
2018-07-06T23:02:09.511Z,20.20
2018-07-06T23:04:41.697Z,20.10
2018-07-06T23:07:14.199Z,20.10
2018-07-06T23:09:46.129Z,20.10
2018-07-06T23:12:18.323Z,20.20
2018-07-06T23:14:50.507Z,20.10
2018-07-06T23:17:23.331Z,20.20
2018-07-06T23:19:55.289Z,20.20
2018-07-06T23:23:17.404Z,20.20
2018-07-06T23:25:51.181Z,20.20
2018-07-06T23:28:23.162Z,20.00
2018-07-06T23:30:55.186Z,20.00
2018-07-06T23:33:28.686Z,20.00
2018-07-06T23:36:01.048Z,20.00
2018-07-06T23:38:33.140Z,20.00
2018-07-06T23:41:05.398Z,19.90
2018-07-06T23:43:37.596Z,19.90
2018-07-06T23:46:09.720Z,19.90
2018-07-06T23:48:42.000Z,19.70
2018-07-06T23:51:14.074Z,19.60
2018-07-06T23:53:46.330Z,19.50
2018-07-06T23:56:18.643Z,19.40
2018-07-06T23:58:50.765Z,19.40
